x

Edisto - 41 Nm Southeast Of Charleston, Sc (41004) Wave Buoy

8:50am - Tue 22nd Jul 2014 All times are EDT. -4 hours from GMT.

  • Sig Wave height 3.0ft
  • Swell Direction
  • Peak Period 7s
  • Average Period 5s
  • Wind
    9mph, 16mph gusts
  • Sea Temp 82°f
  • Air Temp 81°f
  • Sea Pressure 1018.4mb
  • Edisto - 41 Nm Southeast Of Charleston, Sc
  • Edisto - 41 Nm Southeast Of Charleston, Sc

More Historic Weather Station data

Upgrade to MSW Pro to gain access to the past 30 days of data for over 8000 Wavebouys and Weather Stations around the globe.

Join Pro

Comparision Forecast

View Surf forecast
   
Tue 07/22 8:50am 3ft 7s 5s 9 16 mph 1018.4mb 82f 81f
7:50am 2.5ft 7s 5s 11 20 mph 1018.3mb 82f 81f
6:50am 3ft 8s 6s 7 9 mph 1017.5mb 82f 82f
5:50am 2.5ft 8s 6s 9
mph
1017.1mb 82f 82f
4:50am 2.5ft 8s 6s 9 11 mph 1016.7mb 82f 82f
3:50am 2.5ft 7s 6s 11
mph
1016.3mb 82f 82f
2:50am 2.5ft 8s 6s 9
mph
1016.6mb 82f 82f
1:50am 2.5ft 8s 6s 7 9 mph 1017.6mb 82f 81f
12:50am 2.5ft 8s 6s 9 11 mph 1018.1mb 82f 82f
Mon 07/21 11:50pm 2.5ft 8s 6s 9 11 mph 1018.3mb 82f 82f
10:50pm 2.5ft 8s 6s 7 9 mph 1018.6mb 82f 82f
9:50pm 2.5ft 8s 6s 7 9 mph 1018.2mb 82f 82f
8:50pm 2.5ft 8s 6s 7 9 mph 1018.1mb 83f 82f
7:50pm 2.5ft 8s 6s 7
mph
1017.6mb 83f 82f
5:50pm 2.5ft 9s 5s 9 11 mph 1017.5mb 83f 81f
4:50pm 3.5ft 8s 5s 9 11 mph 1017.6mb 83f 82f
3:50pm 3.5ft 8s 5s 11 13 mph 1017.5mb 83f 81f
2:50pm 3.5ft 8s 5s 11 13 mph 1018.1mb 83f 79f
1:50pm 3ft 8s 6s 18 20 mph 1018.3mb 83f 79f
12:50pm 3ft 8s 6s 9 11 mph 1019mb 83f 80f
11:50am 3ft 8s 6s 4 7 mph 1018.9mb 83f 79f
10:50am 3ft 8s 6s 2 4 mph 1018.6mb 82f 79f
9:50am 3ft 8s 6s 2 4 mph 1018.4mb 82f 78f
8:50am 3.5ft 8s 6s 4 7 mph 1018.7mb 82f 78f
7:50am 3.5ft 8s 7s 4
mph
1018.6mb 82f 78f
6:50am 3.5ft 8s 6s 4 7 mph 1017.8mb 82f 78f
5:50am 3.5ft 8s 6s 4 7 mph 1017.7mb 82f 76f
4:50am 3.5ft 8s 6s 4 7 mph 1017.2mb 82f 76f
3:50am 3.5ft 8s 5s 4
mph
1017mb 82f 76f
2:50am 3.5ft 8s 5s 20 27 mph 1017.7mb 82f 74f
1:50am 3.5ft 8s 5s 13 16 mph 1017.3mb 82f 83f
12:50am 3.5ft 8s 5s 11 13 mph 1017.6mb 82f 82f
Sun 07/20 11:50pm 3.5ft 8s 6s 13 16 mph 1017.5mb 82f 82f
10:50pm 3ft 8s 6s 13 16 mph 1017.7mb 82f 83f
9:50pm 3ft 8s 6s 11 13 mph 1017.5mb 83f 83f
8:50pm 3.5ft 8s 6s 9 11 mph 1017.2mb 83f 83f
7:50pm 3.5ft 8s 6s 7
mph
1017.1mb 83f 82f
6:50pm 3ft 8s 6s 7
mph
1017.1mb 83f 82f
5:50pm 3ft 8s 7s 4
mph
1016.9mb 84f 82f
4:50pm 3ft 8s 7s 2 4 mph 1017mb 84f 82f
3:50pm 3ft 8s 7s 2 4 mph 1017.4mb 84f 82f
2:50pm 3ft 8s 7s 7
mph
1017.7mb 84f 80f
1:50pm 3ft 8s 7s 9 20 mph 1018.4mb 83f 79f
12:50pm 3.5ft 8s 7s 2
mph
1018.7mb 85f 83f
11:50am 3ft 8s 6s 2 4 mph 1018.5mb 84f 83f
10:50am 3.5ft 8s 7s 2
mph
1018.5mb 82f 82f
9:50am 3.5ft 8s 7s 4 7 mph 1018.3mb 82f 81f
8:50am 3.5ft 8s 7s 2
mph
1018.3mb 82f 80f
7:50am 3ft 8s 6s 4
mph
1018mb 81f 82f
6:50am 3.5ft 8s 7s 7
mph
1017.7mb 81f 81f
5:50am 3.5ft 8s 6s 7
mph
1017.2mb 82f 81f
4:50am 3.5ft 8s 7s 7 9 mph 1016.7mb 82f 80f
3:50am 3.5ft 8s 7s 9 11 mph 1016.3mb 82f 80f
2:50am 3.5ft 8s 7s 9 11 mph 1016.5mb 82f 80f
1:50am 3ft 8s 7s 7 9 mph 1017.3mb 82f 80f
12:50am 3ft 8s 6s 9 11 mph 1017.7mb 82f 80f
Sat 07/19 11:50pm 3.5ft 8s 6s 7
mph
1018.3mb 82f 80f
10:50pm 3.5ft 8s 6s 7
mph
1018.5mb 82f 80f
9:50pm 3.5ft 8s 6s 7
mph
1018.5mb 82f 80f
8:50pm 3.5ft 8s 6s 7 9 mph 1018.3mb 82f 80f
7:50pm 4ft 8s 6s 7 9 mph 1018.3mb 82f 79f
6:50pm 3.5ft 8s 6s 7
mph
1018.2mb 82f 79f
5:50pm 3.5ft 7s 6s 4 7 mph 1017.9mb 82f 79f
4:50pm 3.5ft 8s 6s 2 4 mph 1018mb 82f 80f
3:50pm 3.5ft 9s 6s 4 7 mph 1017.9mb 82f 79f
2:50pm 3.5ft 9s 6s 7 9 mph 1017.7mb 82f 80f
1:50pm 3.5ft 8s 6s 7
mph
1018.1mb 82f 80f
12:50pm 3.5ft 6s 6s 4 7 mph 1018.6mb 82f 80f
11:50am 4ft 7s 6s 7
mph
1018.7mb 82f 80f
10:50am 3.5ft 8s 5s 7 9 mph 1018.8mb 82f 80f
9:50am 4ft 6s 5s 9 11 mph 1018.9mb 81f 80f
8:50am 4.5ft 7s 5s 9 11 mph 1018.4mb 81f 80f
7:50am 5ft 7s 5s 11
mph
1018.2mb 81f 79f
6:50am 5ft 7s 5s 11 13 mph 1017.6mb 81f 79f
5:50am 5ft 7s 5s 11 16 mph 1017.3mb 81f 79f
4:50am 5.5ft 6s 5s 11 13 mph 1017.3mb 81f 79f
3:50am 6ft 7s 6s 13 16 mph 1017.2mb 81f 80f
2:50am 6ft 7s 6s 16 18 mph 1017.8mb 81f 80f
1:50am 5ft 7s 5s 16 18 mph 1018.4mb 81f 80f
12:50am 5ft 6s 5s 16 20 mph 1018.5mb 81f 80f
Fri 07/18 11:50pm 5ft 7s 5s 18 22 mph 1019mb 81f 80f
10:50pm 5ft 6s 5s 20 25 mph 1019mb 81f 80f
9:50pm 5ft 5s 5s 18 22 mph 1019.2mb 81f 80f
8:50pm 5ft 6s 5s 20 22 mph 1018.9mb 81f 80f
7:50pm 5ft 6s 5s 18 22 mph 1018.8mb 82f 80f
6:50pm 4.5ft 6s 5s 18 22 mph 1018.6mb 82f 80f
5:50pm 4.5ft 6s 5s 18 20 mph 1018.5mb 82f 80f
4:50pm 4.5ft 6s 5s 18 20 mph 1018.6mb 82f 80f
3:50pm 4.5ft 6s 5s 16 20 mph 1018.7mb 82f 80f
2:50pm 4ft 5s 5s 16 20 mph 1018.7mb 82f 81f